Aviation Digital Data Service (ADDS)

Output produced by METARs form (0010 UTC 26 June 2019)
found at http://aviationweather.gov/metar/data/
 
KMCB 252353Z AUTO 15005KT 10SM CLR 23/21 A3012 RMK AO2 RAE05 SLP193 P0004 60015 T02280211 10311 20222 51011
KMCB 252329Z 2600/2624 35006KT P6SM SCT100 OVC120 
     FM260400 VRB03KT P6SM OVC140